createdAt,value
2022-11-20T00:00:00.977Z,24.25
2022-11-20T00:02:30.043Z,21.92
2022-11-20T00:04:58.943Z,29.02
2022-11-20T00:07:28.264Z,30.02
2022-11-20T00:09:56.502Z,26.90
2022-11-20T00:12:25.458Z,26.45
2022-11-20T00:14:53.918Z,25.80
2022-11-20T00:17:23.810Z,23.50
2022-11-20T00:19:53.064Z,24.67
2022-11-20T00:22:21.857Z,26.00
2022-11-20T00:24:50.993Z,25.75
2022-11-20T00:27:20.947Z,23.20
2022-11-20T00:29:49.336Z,23.10
2022-11-20T00:32:18.010Z,23.17
2022-11-20T00:34:48.004Z,19.95
2022-11-20T00:37:17.006Z,20.75
2022-11-20T00:39:46.398Z,21.38
2022-11-20T00:42:16.416Z,20.55
2022-11-20T00:44:45.186Z,20.25
2022-11-20T00:47:14.940Z,20.17
2022-11-20T00:49:44.131Z,18.88
2022-11-20T00:52:13.248Z,19.17
2022-11-20T00:54:41.809Z,31.75
2022-11-20T00:57:12.470Z,21.20
2022-11-20T00:59:54.235Z,19.92
2022-11-20T01:02:25.513Z,18.58
2022-11-20T01:04:55.017Z,18.05
2022-11-20T01:07:30.351Z,18.85
2022-11-20T01:09:58.617Z,18.02
2022-11-20T01:12:27.432Z,16.40
2022-11-20T01:14:56.388Z,18.17
2022-11-20T01:17:27.115Z,18.17
2022-11-20T01:19:58.733Z,20.13
2022-11-20T01:22:28.533Z,19.55
2022-11-20T01:24:58.114Z,19.40
2022-11-20T01:27:26.772Z,18.23
2022-11-20T01:30:00.966Z,19.42
2022-11-20T01:32:32.691Z,18.67
2022-11-20T01:35:02.146Z,19.20
2022-11-20T01:37:31.013Z,19.65
2022-11-20T01:39:59.564Z,17.88
2022-11-20T01:42:47.742Z,18.63
2022-11-20T01:45:36.609Z,19.05
2022-11-20T01:48:06.182Z,17.92
2022-11-20T01:50:35.186Z,17.98
2022-11-20T01:53:07.048Z,18.67
2022-11-20T01:55:38.537Z,18.90
2022-11-20T01:58:07.991Z,18.35
2022-11-20T02:00:37.213Z,17.60
2022-11-20T02:03:09.350Z,17.65
2022-11-20T02:05:48.590Z,18.05
2022-11-20T02:08:19.933Z,19.33
2022-11-20T02:10:49.019Z,18.85
2022-11-20T02:13:36.720Z,18.98
2022-11-20T02:16:06.155Z,20.52
2022-11-20T02:18:35.229Z,22.25
2022-11-20T02:21:22.680Z,20.98
2022-11-20T02:24:04.668Z,23.17
2022-11-20T02:26:35.308Z,22.58
2022-11-20T02:29:05.729Z,22.48
2022-11-20T02:31:43.168Z,21.83
2022-11-20T02:34:13.131Z,21.67
2022-11-20T02:36:43.562Z,22.30
2022-11-20T02:39:13.506Z,22.58
2022-11-20T02:41:41.886Z,22.48
2022-11-20T02:44:12.750Z,22.17
2022-11-20T02:46:41.545Z,23.25
2022-11-20T02:49:12.025Z,21.95
2022-11-20T02:51:42.185Z,22.08
2022-11-20T02:54:12.109Z,22.98
2022-11-20T02:56:42.281Z,22.92
2022-11-20T02:59:12.434Z,23.13
2022-11-20T03:01:40.820Z,22.48
2022-11-20T03:04:10.553Z,22.17
2022-11-20T03:06:38.857Z,23.08
2022-11-20T03:09:08.915Z,33.35
2022-11-20T03:11:37.357Z,23.02
2022-11-20T03:14:06.548Z,26.30
2022-11-20T03:16:34.895Z,24.75
2022-11-20T03:19:03.948Z,24.20
2022-11-20T03:21:34.744Z,25.75
2022-11-20T03:24:04.513Z,24.58
2022-11-20T03:26:33.418Z,23.63
2022-11-20T03:29:05.885Z,25.30
2022-11-20T03:31:41.304Z,23.75
2022-11-20T03:34:14.037Z,22.20
2022-11-20T03:36:44.274Z,25.17
2022-11-20T03:39:13.028Z,27.90
2022-11-20T03:41:43.715Z,25.60
2022-11-20T03:44:13.977Z,25.98
2022-11-20T03:46:42.673Z,25.50
2022-11-20T03:49:11.349Z,26.08
2022-11-20T03:51:41.040Z,25.02
2022-11-20T03:54:11.350Z,25.45
2022-11-20T03:56:42.249Z,26.17
2022-11-20T03:59:13.032Z,26.08
2022-11-20T04:01:44.313Z,24.92
2022-11-20T04:04:20.005Z,23.85
2022-11-20T04:06:48.252Z,26.55
2022-11-20T04:09:16.872Z,25.70
2022-11-20T04:11:46.466Z,26.73
2022-11-20T04:14:19.403Z,25.25
2022-11-20T04:16:47.695Z,25.85
2022-11-20T04:19:17.589Z,23.65
2022-11-20T04:21:46.142Z,24.33
2022-11-20T04:24:14.866Z,23.98
2022-11-20T04:26:43.784Z,22.60
2022-11-20T04:29:13.651Z,23.58
2022-11-20T04:31:41.907Z,23.80
2022-11-20T04:34:13.848Z,23.95
2022-11-20T04:36:43.482Z,23.88
2022-11-20T04:39:14.685Z,24.45
2022-11-20T04:41:43.647Z,24.77
2022-11-20T04:44:13.333Z,23.88
2022-11-20T04:46:42.957Z,24.77
2022-11-20T04:49:13.023Z,24.35
2022-11-20T04:51:43.436Z,25.63
2022-11-20T04:54:13.507Z,25.02
2022-11-20T04:56:43.271Z,24.77
2022-11-20T04:59:13.906Z,24.90
2022-11-20T05:01:42.490Z,23.55
2022-11-20T05:04:12.608Z,24.63
2022-11-20T05:06:43.083Z,24.60
2022-11-20T05:09:12.405Z,25.60
2022-11-20T05:11:42.435Z,24.42
2022-11-20T05:14:11.088Z,25.17
2022-11-20T05:16:40.584Z,23.70
2022-11-20T05:19:09.191Z,23.98
2022-11-20T05:21:38.931Z,22.85
2022-11-20T05:24:08.068Z,24.38
2022-11-20T05:26:36.896Z,23.65
2022-11-20T05:29:05.935Z,24.52
2022-11-20T05:31:34.525Z,24.17
2022-11-20T05:34:04.042Z,24.90
2022-11-20T05:36:32.512Z,24.63
2022-11-20T05:39:02.214Z,24.10
2022-11-20T05:41:33.278Z,27.10
2022-11-20T05:44:02.385Z,25.55
2022-11-20T05:46:31.622Z,27.83
2022-11-20T05:49:01.705Z,43.13
2022-11-20T05:51:32.429Z,52.80
2022-11-20T05:54:01.095Z,28.25
2022-11-20T05:56:29.329Z,31.48
2022-11-20T05:58:58.108Z,30.88
2022-11-20T06:01:27.193Z,26.30
2022-11-20T06:03:58.620Z,25.08
2022-11-20T06:06:27.389Z,29.77
2022-11-20T06:08:56.947Z,31.85
2022-11-20T06:11:26.539Z,27.02
2022-11-20T06:13:56.152Z,25.17
2022-11-20T06:16:24.466Z,26.45
2022-11-20T06:18:54.055Z,25.83
2022-11-20T06:21:24.064Z,28.75
2022-11-20T06:23:55.335Z,31.77
2022-11-20T06:26:28.891Z,31.30
2022-11-20T06:28:59.129Z,35.17
2022-11-20T06:31:27.677Z,35.65
2022-11-20T06:33:57.091Z,37.38
2022-11-20T06:36:29.275Z,27.45
2022-11-20T06:39:00.102Z,31.00
2022-11-20T06:41:29.134Z,25.95
2022-11-20T06:44:00.958Z,34.92
2022-11-20T06:46:30.264Z,27.90
2022-11-20T06:48:59.405Z,30.38
2022-11-20T06:51:29.171Z,26.50
2022-11-20T06:54:01.994Z,39.35
2022-11-20T06:56:31.816Z,26.83
2022-11-20T06:59:05.196Z,38.20
2022-11-20T07:01:33.669Z,29.55
2022-11-20T07:04:04.431Z,24.95
2022-11-20T07:06:33.653Z,30.08
2022-11-20T07:09:08.554Z,26.27
2022-11-20T07:11:41.182Z,28.95
2022-11-20T07:14:11.579Z,25.10
2022-11-20T07:16:39.836Z,23.58
2022-11-20T07:19:10.490Z,25.90
2022-11-20T07:21:39.807Z,28.08
2022-11-20T07:24:13.812Z,24.92
2022-11-20T07:26:43.143Z,43.05
2022-11-20T07:29:11.881Z,30.60
2022-11-20T07:31:41.056Z,69.50
2022-11-20T07:34:10.051Z,49.78
2022-11-20T07:36:40.088Z,32.17
2022-11-20T07:39:08.828Z,40.58
2022-11-20T07:41:43.055Z,39.03
2022-11-20T07:44:14.483Z,59.63
2022-11-20T07:46:45.450Z,49.67
2022-11-20T07:49:17.029Z,42.63
2022-11-20T07:51:47.887Z,43.85
2022-11-20T07:54:19.910Z,40.33
2022-11-20T07:56:48.623Z,39.22
2022-11-20T07:59:18.243Z,33.08
2022-11-20T08:01:46.536Z,31.00
2022-11-20T08:04:17.294Z,32.25
2022-11-20T08:06:45.716Z,33.13
2022-11-20T08:09:16.942Z,31.58
2022-11-20T08:12:05.875Z,32.67
2022-11-20T08:14:37.280Z,45.53
2022-11-20T08:17:07.709Z,41.35
2022-11-20T08:19:38.566Z,31.58
2022-11-20T08:22:07.339Z,39.20
2022-11-20T08:24:36.549Z,32.75
2022-11-20T08:27:06.617Z,36.20
2022-11-20T08:29:36.369Z,35.10
2022-11-20T08:32:09.187Z,47.13
2022-11-20T08:34:40.610Z,37.65
2022-11-20T08:37:09.343Z,34.13
2022-11-20T08:39:38.967Z,28.65
2022-11-20T08:42:12.135Z,33.10
2022-11-20T08:44:42.942Z,43.92
2022-11-20T08:47:11.321Z,41.72
2022-11-20T08:49:40.087Z,33.20
2022-11-20T08:52:08.432Z,36.20
2022-11-20T08:54:37.362Z,38.90
2022-11-20T08:57:07.463Z,36.70
2022-11-20T09:00:05.611Z,32.00
2022-11-20T09:02:25.772Z,37.03
2022-11-20T09:04:55.428Z,35.97
2022-11-20T09:07:24.280Z,37.83
2022-11-20T09:10:22.103Z,40.33
2022-11-20T09:12:50.810Z,52.42
2022-11-20T09:18:06.139Z,52.38
2022-11-20T09:20:55.244Z,48.65
2022-11-20T09:23:24.251Z,34.60
2022-11-20T09:25:56.908Z,306.10
2022-11-20T09:28:26.716Z,236.60
2022-11-20T09:30:56.487Z,426.77
2022-11-20T09:33:26.177Z,545.97
2022-11-20T09:35:55.337Z,68.47
2022-11-20T09:38:29.690Z,44.28
2022-11-20T09:41:27.673Z,31.67
2022-11-20T09:44:02.081Z,34.47
2022-11-20T09:46:49.083Z,65.43
2022-11-20T09:49:36.437Z,54.20
2022-11-20T09:52:14.783Z,34.95
2022-11-20T09:54:45.385Z,33.60
2022-11-20T10:06:13.171Z,105.80
2022-11-20T10:08:46.179Z,38.78
2022-11-20T10:11:35.279Z,40.25
2022-11-20T10:14:11.313Z,36.03
2022-11-20T10:17:04.611Z,31.80
2022-11-20T10:19:33.027Z,33.75
2022-11-20T10:22:03.231Z,33.47
2022-11-20T10:24:41.713Z,36.45
2022-11-20T10:27:16.913Z,30.45
2022-11-20T10:29:49.012Z,38.17
2022-11-20T10:32:37.210Z,54.53
2022-11-20T10:35:28.371Z,50.30
2022-11-20T10:38:14.937Z,36.40
2022-11-20T10:40:47.940Z,37.03
2022-11-20T10:45:55.042Z,40.80
2022-11-20T10:48:40.929Z,45.40
2022-11-20T10:51:33.722Z,46.03
2022-11-20T10:54:06.070Z,35.05
2022-11-20T10:56:46.873Z,52.00
2022-11-20T10:59:42.358Z,48.30
2022-11-20T11:02:22.310Z,30.85
2022-11-20T11:04:57.301Z,33.05
2022-11-20T11:07:30.102Z,47.13
2022-11-20T11:10:01.103Z,29.70
2022-11-20T11:12:33.950Z,28.63
2022-11-20T11:15:05.227Z,35.30
2022-11-20T11:17:35.916Z,32.63
2022-11-20T11:20:22.266Z,36.92
2022-11-20T11:23:05.066Z,44.42
2022-11-20T11:25:38.617Z,38.92
2022-11-20T11:28:21.796Z,41.95
2022-11-20T11:31:02.927Z,119.35
2022-11-20T11:33:32.847Z,43.88
2022-11-20T11:36:04.502Z,42.20
2022-11-20T11:38:37.501Z,47.45
2022-11-20T11:41:08.957Z,52.45
2022-11-20T11:43:57.579Z,32.15
2022-11-20T11:46:46.188Z,55.63
2022-11-20T11:49:22.057Z,37.97
2022-11-20T11:52:05.507Z,33.90
2022-11-20T11:54:55.810Z,35.97
2022-11-20T11:57:44.815Z,29.00
2022-11-20T12:00:16.262Z,29.08
2022-11-20T12:02:45.423Z,25.95
2022-11-20T12:05:22.560Z,29.55
2022-11-20T12:08:51.301Z,35.58
2022-11-20T12:12:02.585Z,31.33
2022-11-20T12:14:54.812Z,26.35
2022-11-20T12:17:31.806Z,31.08
2022-11-20T12:20:37.254Z,32.25
2022-11-20T12:23:22.869Z,30.45
2022-11-20T12:25:54.941Z,34.97
2022-11-20T12:28:34.640Z,30.85
2022-11-20T12:31:24.869Z,36.28
2022-11-20T12:34:10.471Z,33.85
2022-11-20T12:36:47.322Z,39.70
2022-11-20T12:39:20.402Z,29.90
2022-11-20T12:42:20.305Z,26.38
2022-11-20T12:45:12.321Z,129.98
2022-11-20T12:48:02.082Z,43.65
2022-11-20T12:50:53.238Z,139.73
2022-11-20T12:53:47.112Z,156.15
2022-11-20T12:56:36.172Z,102.57
2022-11-20T12:59:07.087Z,79.00
2022-11-20T13:01:42.083Z,69.93
2022-11-20T13:04:15.716Z,31.95
2022-11-20T13:06:46.200Z,28.88
2022-11-20T13:09:19.010Z,40.65
2022-11-20T13:11:54.157Z,40.15
2022-11-20T13:14:31.000Z,34.20
2022-11-20T13:17:21.967Z,41.33
2022-11-20T13:20:02.961Z,39.05
2022-11-20T13:22:45.143Z,44.88
2022-11-20T13:25:36.439Z,36.70
2022-11-20T13:28:35.867Z,42.72
2022-11-20T13:31:12.504Z,34.75
2022-11-20T13:33:42.469Z,36.65
2022-11-20T13:36:31.556Z,39.92
2022-11-20T13:39:05.521Z,36.33
2022-11-20T13:41:39.196Z,32.80
2022-11-20T13:44:16.773Z,34.42
2022-11-20T13:46:47.463Z,36.03
2022-11-20T13:49:47.027Z,33.80
2022-11-20T13:52:46.025Z,37.35
2022-11-20T13:55:15.864Z,32.15
2022-11-20T13:57:46.324Z,41.95
2022-11-20T14:03:51.237Z,32.65
2022-11-20T14:06:53.419Z,30.42
2022-11-20T14:09:54.632Z,35.45
2022-11-20T14:12:34.985Z,29.85
2022-11-20T14:15:25.036Z,33.35
2022-11-20T14:17:56.682Z,27.58
2022-11-20T14:20:33.045Z,30.77
2022-11-20T14:23:02.410Z,26.30
2022-11-20T14:25:32.247Z,28.02
2022-11-20T14:28:06.994Z,29.98
2022-11-20T14:30:55.959Z,27.27
2022-11-20T14:36:28.342Z,53.75
2022-11-20T14:38:59.928Z,44.58
2022-11-20T14:41:29.548Z,63.80
2022-11-20T14:46:52.574Z,45.70
2022-11-20T14:49:21.940Z,45.80
2022-11-20T14:52:04.707Z,37.47
2022-11-20T14:54:37.844Z,45.10
2022-11-20T14:57:37.712Z,101.85
2022-11-20T15:00:10.563Z,187.45
2022-11-20T15:02:49.356Z,93.88
2022-11-20T15:05:25.165Z,56.63
2022-11-20T15:08:08.151Z,42.50
2022-11-20T15:10:45.339Z,31.70
2022-11-20T15:13:16.699Z,46.88
2022-11-20T15:15:49.940Z,40.42
2022-11-20T15:18:46.688Z,45.38
2022-11-20T15:21:26.457Z,53.45
2022-11-20T15:23:57.039Z,37.40
2022-11-20T15:26:28.007Z,32.15
2022-11-20T15:29:05.089Z,28.25
2022-11-20T15:31:34.726Z,62.50
2022-11-20T15:34:24.139Z,63.03
2022-11-20T15:37:11.604Z,61.47
2022-11-20T15:39:41.665Z,47.75
2022-11-20T15:42:09.949Z,35.67
2022-11-20T15:44:39.537Z,29.38
2022-11-20T15:47:08.536Z,52.03
2022-11-20T15:49:38.043Z,41.17
2022-11-20T15:52:10.854Z,44.95
2022-11-20T15:54:40.401Z,56.63
2022-11-20T15:57:08.993Z,59.63
2022-11-20T15:59:42.291Z,57.47
2022-11-20T16:02:19.133Z,34.17
2022-11-20T16:05:02.497Z,59.38
2022-11-20T16:07:36.523Z,43.65
2022-11-20T16:10:14.797Z,46.63
2022-11-20T16:13:04.318Z,36.88
2022-11-20T16:15:52.345Z,42.53
2022-11-20T16:21:13.832Z,28.10
2022-11-20T16:23:45.696Z,91.13
2022-11-20T16:26:18.959Z,47.35
2022-11-20T16:29:03.721Z,58.90
2022-11-20T16:31:37.749Z,35.63
2022-11-20T16:34:11.796Z,54.28
2022-11-20T16:36:45.669Z,42.90
2022-11-20T16:39:44.654Z,51.85
2022-11-20T16:42:14.309Z,66.35
2022-11-20T16:44:42.451Z,45.25
2022-11-20T16:47:18.428Z,52.78
2022-11-20T16:49:47.584Z,53.85
2022-11-20T16:52:20.340Z,43.60
2022-11-20T16:54:49.303Z,44.63
2022-11-20T16:57:19.334Z,40.45
2022-11-20T16:59:50.273Z,56.13
2022-11-20T17:02:19.078Z,37.65
2022-11-20T17:04:47.571Z,43.35
2022-11-20T17:07:16.279Z,60.10
2022-11-20T17:09:44.567Z,59.33
2022-11-20T17:12:14.940Z,48.28
2022-11-20T17:14:44.695Z,60.75
2022-11-20T17:17:15.674Z,42.42
2022-11-20T17:19:44.961Z,65.43
2022-11-20T17:22:14.158Z,37.70
2022-11-20T17:24:42.509Z,29.45
2022-11-20T17:27:12.602Z,42.67
2022-11-20T17:29:42.325Z,73.82
2022-11-20T17:32:24.099Z,46.83
2022-11-20T17:34:53.312Z,43.35
2022-11-20T17:37:22.221Z,116.35
2022-11-20T17:39:50.450Z,85.55
2022-11-20T17:42:27.919Z,49.53
2022-11-20T17:44:57.409Z,40.13
2022-11-20T17:47:26.984Z,38.70
2022-11-20T17:49:55.592Z,37.13
2022-11-20T17:52:28.175Z,37.08
2022-11-20T17:54:59.212Z,49.17
2022-11-20T17:57:46.736Z,44.05
2022-11-20T18:00:21.012Z,47.50
2022-11-20T18:03:01.433Z,43.78
2022-11-20T18:05:30.739Z,40.92
2022-11-20T18:08:03.689Z,42.47
2022-11-20T18:10:35.895Z,45.65
2022-11-20T18:13:07.176Z,38.30
2022-11-20T18:15:36.104Z,39.63
2022-11-20T18:18:08.461Z,43.00
2022-11-20T18:20:39.959Z,41.85
2022-11-20T18:23:10.718Z,41.50
2022-11-20T18:25:43.555Z,52.67
2022-11-20T18:28:13.051Z,49.13
2022-11-20T18:30:41.324Z,47.58
2022-11-20T18:33:10.041Z,43.75
2022-11-20T18:35:43.048Z,46.30
2022-11-20T18:38:13.016Z,60.50
2022-11-20T18:40:43.228Z,71.07
2022-11-20T18:43:38.143Z,52.70
2022-11-20T18:46:12.164Z,59.38
2022-11-20T18:48:42.161Z,80.18
2022-11-20T18:51:16.321Z,71.20
2022-11-20T18:53:47.694Z,55.58
2022-11-20T18:56:16.294Z,61.35
2022-11-20T18:58:45.074Z,84.18
2022-11-20T19:01:18.567Z,71.63
2022-11-20T19:07:17.147Z,73.85
2022-11-20T19:12:40.690Z,119.63
2022-11-20T19:21:10.223Z,134.93
2022-11-20T19:26:55.430Z,80.88
2022-11-20T19:29:26.324Z,84.18
2022-11-20T19:32:06.797Z,70.57
2022-11-20T19:34:37.244Z,56.15
2022-11-20T19:37:12.151Z,62.65
2022-11-20T19:45:15.900Z,82.82
2022-11-20T19:48:07.081Z,71.65
2022-11-20T19:50:36.466Z,106.82
2022-11-20T19:53:05.084Z,101.47
2022-11-20T19:55:37.074Z,81.55
2022-11-20T19:58:06.585Z,74.20
2022-11-20T20:00:35.244Z,63.50
2022-11-20T20:03:05.940Z,65.93
2022-11-20T20:05:35.025Z,56.92
2022-11-20T20:08:04.212Z,53.60
2022-11-20T20:10:36.288Z,52.33
2022-11-20T20:13:15.973Z,67.30
2022-11-20T20:15:46.140Z,71.35
2022-11-20T20:18:15.205Z,80.78
2022-11-20T20:20:44.033Z,87.82
2022-11-20T20:23:12.705Z,99.50
2022-11-20T20:25:42.280Z,102.80
2022-11-20T20:28:11.342Z,114.38
2022-11-20T20:30:39.743Z,101.18
2022-11-20T20:33:17.094Z,85.63
2022-11-20T20:35:50.411Z,79.13
2022-11-20T20:38:43.420Z,59.55
2022-11-20T20:41:11.773Z,51.60
2022-11-20T20:44:00.093Z,49.95
2022-11-20T20:46:29.524Z,56.40
2022-11-20T20:49:00.010Z,68.10
2022-11-20T20:51:36.166Z,94.78
2022-11-20T20:54:06.013Z,101.00
2022-11-20T20:56:35.251Z,77.35
2022-11-20T20:59:10.600Z,62.72
2022-11-20T21:01:38.781Z,108.07
2022-11-20T21:04:07.667Z,95.35
2022-11-20T21:06:38.820Z,62.45
2022-11-20T21:09:14.497Z,56.47
2022-11-20T21:12:27.192Z,48.42
2022-11-20T21:15:04.106Z,70.65
2022-11-20T21:17:32.368Z,65.35
2022-11-20T21:20:21.540Z,53.45
2022-11-20T21:22:53.807Z,53.13
2022-11-20T21:25:25.703Z,49.80
2022-11-20T21:27:54.717Z,73.63
2022-11-20T21:30:24.411Z,47.13
2022-11-20T21:32:52.677Z,94.38
2022-11-20T21:35:26.468Z,121.95
2022-11-20T21:38:05.885Z,86.18
2022-11-20T21:40:36.418Z,50.15
2022-11-20T21:43:04.783Z,67.15
2022-11-20T21:45:33.741Z,62.00
2022-11-20T21:48:02.195Z,63.05
2022-11-20T21:50:31.267Z,71.28
2022-11-20T21:53:01.476Z,47.75
2022-11-20T21:55:36.583Z,52.25
2022-11-20T21:58:05.396Z,68.53
2022-11-20T22:00:36.467Z,46.70
2022-11-20T22:03:08.318Z,72.60
2022-11-20T22:05:40.050Z,53.80
2022-11-20T22:08:08.835Z,65.85
2022-11-20T22:10:37.520Z,63.92
2022-11-20T22:13:26.245Z,42.90
2022-11-20T22:16:02.121Z,55.88
2022-11-20T22:18:30.761Z,58.00
2022-11-20T22:21:06.133Z,68.13
2022-11-20T22:23:37.243Z,45.95
2022-11-20T22:26:15.917Z,60.90
2022-11-20T22:28:49.165Z,56.83
2022-11-20T22:31:18.664Z,96.13
2022-11-20T22:33:50.297Z,70.13
2022-11-20T22:36:29.555Z,61.25
2022-11-20T22:38:58.927Z,48.13
2022-11-20T22:41:33.263Z,53.63
2022-11-20T22:44:05.858Z,45.10
2022-11-20T22:46:36.325Z,44.28
2022-11-20T22:49:10.275Z,43.65
2022-11-20T22:51:41.256Z,45.67
2022-11-20T22:54:12.110Z,38.90
2022-11-20T22:56:43.223Z,55.50
2022-11-20T22:59:12.175Z,39.22
2022-11-20T23:01:41.167Z,43.05
2022-11-20T23:04:14.537Z,40.55
2022-11-20T23:06:43.833Z,44.30
2022-11-20T23:09:13.215Z,47.00
2022-11-20T23:11:42.388Z,41.83
2022-11-20T23:14:26.384Z,46.08
2022-11-20T23:16:56.467Z,43.08
2022-11-20T23:19:24.844Z,42.40
2022-11-20T23:21:54.344Z,41.25
2022-11-20T23:24:23.045Z,39.58
2022-11-20T23:26:54.894Z,172.15
2022-11-20T23:29:23.670Z,41.75
2022-11-20T23:31:52.826Z,42.90
2022-11-20T23:34:21.167Z,46.13
2022-11-20T23:36:50.663Z,42.35
2022-11-20T23:39:19.218Z,39.10
2022-11-20T23:41:49.389Z,46.97
2022-11-20T23:44:17.876Z,44.15
2022-11-20T23:46:55.091Z,43.40
2022-11-20T23:49:25.083Z,41.10
2022-11-20T23:51:54.343Z,40.53
2022-11-20T23:54:22.586Z,41.58
2022-11-20T23:56:51.405Z,41.15
2022-11-20T23:59:20.394Z,42.25
